메인 페이지
METAR-TAF:

METAR-TAF

공항 :

조지타운, 어센션 섬

위도: 07-58S, 경도: 014-24W, 고도: 86m

METAR: 누락

시각: 23:02 (23:02 UTC)

예보

예보는 42 시간 32분 전, 04:30시(UTC)에 발표되었습니다.
예보 대상 시간: 27일 06시부터 27일 24시까지 (UTC)
남동15kt
시정 10km 이상
고도 2400ft 상공 구름 조금
확률 30% :
일시적
27일 06시부터 27일 24시까지 (UTC)
시정: 7000m
고도 2200ft 상공 구름 보통
약한소나기

TAF: FHAW 270430Z 2706/2724 13015KT 9999 FEW024 PROB30 TEMPO 2706/2724 7000 -SHRA SCT022

4,000개 이상의 공항 관측 자료 및 예보 (METAR 및 TAF 보고).

지도상에서 검색 가능한 기상관측소가 노란 점과 빨간 점으로 표시되어 있습니다.

기상관측소 명을 보려면 표시 위로 마우스를 이동하세요.

날씨 관측과 예보를 보려면 클릭하세요.

지도 변경 : 확대하려면 엑스 표시가 있는 녹색 버튼, 축소하려면 빼기 표시가 있는 녹색 버튼, 다음 페이지의 지도를 보려면 녹색 화살표를 클릭하세요.


METAR-TAF: